Time;durP1;ratioP1;P1;durP2;ratioP2;P2;SDS_P1;SDS_P2;PMS_P1;PMS_P2;Temp;Humidity;BMP_temperature;BMP_pressure;BME280_temperature;BME280_humidity;BME280_pressure;Samples;Min_cycle;Max_cycle;Signal;HPM_P1;HPM_P2
2022/01/20 00:01:11;;;;;;;17.80;1.75;;;2.80;84.90;;;;;;5033059;28;20045;-72
2022/01/20 00:03:40;;;;;;;13.50;1.63;;;2.90;85.00;;;;;;5052522;28;20065;-72
2022/01/20 00:28:12;;;;;;;14.32;1.55;;;3.60;82.40;;;;;;5058625;28;20190;-72
2022/01/20 00:30:48;;;;;;;15.07;1.48;;;3.60;82.30;;;;;;5044408;28;20522;-72
2022/01/20 00:33:21;;;;;;;10.52;1.27;;;3.70;82.70;;;;;;5045493;28;20079;-72
2022/01/20 00:38:20;;;;;;;17.77;2.15;;;3.80;83.10;;;;;;5061693;28;20055;-73
2022/01/20 00:40:50;;;;;;;6.75;1.10;;;3.90;83.10;;;;;;5065985;28;20591;-73
2022/01/20 00:43:16;;;;;;;8.55;1.48;;;3.90;83.30;;;;;;5048217;28;20049;-73
2022/01/20 00:45:41;;;;;;;8.80;0.83;;;3.90;82.90;;;;;;5029808;28;20048;-73
2022/01/20 00:48:08;;;;;;;5.83;0.67;;;3.80;82.50;;;;;;5035637;28;20041;-73
2022/01/20 00:50:35;;;;;;;9.88;0.80;;;3.70;82.30;;;;;;5056880;28;20052;-73
2022/01/20 00:53:01;;;;;;;4.65;0.55;;;3.60;82.70;;;;;;5074745;28;20567;-73
2022/01/20 00:55:27;;;;;;;6.90;0.60;;;3.50;82.60;;;;;;5017881;28;20037;-72
2022/01/20 00:57:53;;;;;;;7.90;0.80;;;3.40;82.50;;;;;;5032782;28;20037;-72
2022/01/20 01:00:19;;;;;;;4.93;0.60;;;3.30;82.40;;;;;;5032907;28;20036;-72
2022/01/20 01:02:45;;;;;;;8.53;1.17;;;3.30;82.70;;;;;;5043934;28;20063;-72
2022/01/20 01:05:11;;;;;;;9.17;1.87;;;3.20;82.70;;;;;;5032573;28;20393;-72
2022/01/20 01:10:15;;;;;;;5.38;0.77;;;3.00;83.10;;;;;;5043056;28;20078;-72
2022/01/20 01:15:18;;;;;;;7.70;1.20;;;2.90;83.20;;;;;;5053580;28;20294;-73
2022/01/20 01:20:32;;;;;;;11.27;0.73;;;2.90;83.10;;;;;;5043931;28;20139;-73
2022/01/20 01:22:59;;;;;;;7.82;0.80;;;3.00;83.10;;;;;;5052815;28;20075;-72
2022/01/20 01:25:27;;;;;;;8.32;1.08;;;3.00;83.00;;;;;;5041262;28;20048;-72
2022/01/20 01:27:54;;;;;;;11.13;1.00;;;3.10;83.00;;;;;;5047030;28;20409;-72
2022/01/20 01:30:33;;;;;;;11.52;1.80;;;3.20;82.90;;;;;;5036148;28;20045;-72
2022/01/20 01:32:58;;;;;;;17.23;1.75;;;3.30;83.00;;;;;;5064059;28;20076;-72
2022/01/20 01:35:26;;;;;;;9.47;1.90;;;3.40;83.10;;;;;;5052118;28;20416;-73
2022/01/20 01:40:25;;;;;;;5.68;0.50;;;3.60;83.10;;;;;;5048865;28;20478;-72
2022/01/20 01:42:52;;;;;;;3.63;0.20;;;3.50;82.80;;;;;;5051590;28;20044;-73
2022/01/20 01:45:24;;;;;;;3.30;0.20;;;3.50;82.40;;;;;;5038050;28;20041;-73
2022/01/20 01:47:50;;;;;;;2.58;0.20;;;3.40;82.50;;;;;;5028689;28;20187;-73
2022/01/20 01:50:16;;;;;;;9.60;1.47;;;3.30;81.70;;;;;;5052829;28;20488;-72
2022/01/20 01:52:43;;;;;;;8.70;0.87;;;3.20;82.00;;;;;;5039777;28;20044;-72
2022/01/20 01:55:09;;;;;;;6.07;0.73;;;3.20;81.80;;;;;;5043185;28;20520;-72
2022/01/20 01:57:35;;;;;;;8.02;0.60;;;3.10;82.40;;;;;;5072883;28;20048;-72
2022/01/20 02:00:01;;;;;;;5.73;0.80;;;3.10;82.40;;;;;;5028484;28;20040;-72
2022/01/20 02:02:27;;;;;;;6.80;0.70;;;3.10;82.50;;;;;;5033522;28;20124;-72
2022/01/20 02:04:53;;;;;;;10.68;0.90;;;3.10;82.50;;;;;;5065096;28;20045;-73
2022/01/20 02:18:24;;;;;;;11.10;1.35;;;3.40;82.80;;;;;;5064559;28;20266;-72
2022/01/20 02:20:51;;;;;;;10.82;1.15;;;3.50;82.50;;;;;;5059673;28;20048;-72
2022/01/20 02:23:17;;;;;;;15.57;1.65;;;3.40;82.30;;;;;;5051444;28;20029;-72
2022/01/20 02:25:43;;;;;;;16.93;1.90;;;3.40;82.20;;;;;;5059228;28;20511;-72
2022/01/20 02:28:10;;;;;;;10.20;1.27;;;3.50;82.30;;;;;;5043101;28;20783;-72
2022/01/20 02:30:39;;;;;;;10.60;1.30;;;3.50;82.20;;;;;;5061388;28;20044;-72
2022/01/20 02:33:11;;;;;;;14.20;1.48;;;3.50;81.40;;;;;;5045062;28;20055;-72
2022/01/20 02:35:44;;;;;;;10.88;1.77;;;3.40;81.20;;;;;;5040745;28;20079;-72
2022/01/20 02:38:16;;;;;;;16.17;2.42;;;3.30;81.40;;;;;;5063700;28;20055;-72
2022/01/20 02:45:55;;;;;;;;;;;3.30;81.80;;;;;;5058795;28;20049;-72
2022/01/20 02:48:21;;;;;;;21.73;3.03;;;3.30;82.00;;;;;;5040781;28;19916;-72
2022/01/20 02:50:47;;;;;;;25.48;2.47;;;3.20;81.80;;;;;;5046928;28;20045;-72
2022/01/20 02:53:14;;;;;;;16.55;2.47;;;3.30;81.80;;;;;;5056473;28;20075;-72
2022/01/20 02:55:40;;;;;;;22.50;2.80;;;3.30;82.20;;;;;;5035161;28;20033;-72
2022/01/20 02:58:06;;;;;;;17.63;2.88;;;3.30;82.00;;;;;;5049499;28;20041;-72
2022/01/20 03:00:34;;;;;;;23.30;3.60;;;3.40;81.30;;;;;;5057932;28;20033;-72
2022/01/20 03:03:00;;;;;;;17.98;3.28;;;3.50;77.50;;;;;;5060769;28;20544;-72
2022/01/20 03:05:27;;;;;;;15.27;2.58;;;3.40;75.30;;;;;;5046962;28;20512;-72
2022/01/20 03:07:53;;;;;;;18.00;2.80;;;3.40;73.40;;;;;;5030017;28;20053;-72
2022/01/20 03:10:18;;;;;;;18.35;3.00;;;3.30;73.80;;;;;;5056427;28;20044;-72
2022/01/20 03:12:44;;;;;;;23.97;2.77;;;3.20;73.80;;;;;;5058219;28;20048;-72
2022/01/20 03:15:10;;;;;;;15.57;2.13;;;3.20;72.70;;;;;;5043997;28;20119;-72
2022/01/20 03:17:36;;;;;;;16.10;2.37;;;3.10;71.50;;;;;;5034155;28;20083;-72
2022/01/20 03:20:02;;;;;;;17.53;2.70;;;3.00;72.30;;;;;;5044706;28;20040;-72
2022/01/20 03:22:28;;;;;;;12.05;2.13;;;2.90;71.30;;;;;;5054421;28;20037;-72
2022/01/20 03:24:55;;;;;;;8.27;1.53;;;2.90;71.00;;;;;;5004687;28;20036;-72
2022/01/20 03:27:21;;;;;;;14.82;1.77;;;2.80;70.90;;;;;;5062185;28;20052;-72
2022/01/20 03:29:46;;;;;;;18.10;3.13;;;2.80;71.40;;;;;;5025539;28;20070;-72
2022/01/20 03:32:12;;;;;;;16.90;1.70;;;2.90;70.00;;;;;;5053355;28;20044;-72
2022/01/20 03:34:38;;;;;;;20.83;2.90;;;2.90;70.90;;;;;;5025386;28;20044;-72
2022/01/20 03:37:05;;;;;;;15.37;2.10;;;2.90;71.90;;;;;;5055381;28;20459;-72
2022/01/20 03:39:33;;;;;;;25.13;3.47;;;2.90;72.30;;;;;;5054750;28;20076;-72
2022/01/20 03:41:59;;;;;;;28.20;3.80;;;3.00;72.20;;;;;;5052652;28;20505;-72
2022/01/20 03:44:25;;;;;;;24.53;3.13;;;3.00;72.30;;;;;;5042803;28;20033;-72
2022/01/20 03:46:51;;;;;;;15.70;2.93;;;3.10;72.80;;;;;;5023017;28;20052;-71
2022/01/20 03:52:11;;;;;;;20.40;3.65;;;3.10;73.20;;;;;;4998218;28;20086;-71
2022/01/20 03:54:37;;;;;;;20.77;3.33;;;3.10;73.50;;;;;;5047118;28;20122;-72
2022/01/20 03:57:03;;;;;;;23.77;2.30;;;3.00;73.90;;;;;;5037105;28;20044;-72
2022/01/20 03:59:28;;;;;;;28.80;2.80;;;3.10;72.90;;;;;;5045014;28;20051;-72
2022/01/20 04:01:54;;;;;;;24.93;3.63;;;3.10;73.30;;;;;;5038236;28;20117;-72
2022/01/20 04:04:20;;;;;;;17.77;2.53;;;3.10;72.80;;;;;;5045437;28;20056;-72
2022/01/20 04:06:47;;;;;;;16.60;2.73;;;3.10;73.00;;;;;;5036524;28;20037;-72
2022/01/20 04:09:13;;;;;;;21.73;3.17;;;3.10;73.60;;;;;;5021341;28;20041;-71
2022/01/20 04:11:39;;;;;;;18.75;3.33;;;3.10;74.00;;;;;;5064272;28;20041;-72
2022/01/20 04:14:05;;;;;;;9.40;1.20;;;3.10;73.70;;;;;;5043091;28;20048;-72
2022/01/20 04:19:32;;;;;;;9.05;1.10;;;2.90;72.30;;;;;;5049630;28;20037;-72
2022/01/20 04:22:00;;;;;;;12.80;1.25;;;2.80;71.80;;;;;;5060733;28;20486;-72
2022/01/20 04:24:25;;;;;;;12.98;1.88;;;2.70;72.10;;;;;;5051477;28;20071;-72
2022/01/20 04:26:51;;;;;;;12.10;2.00;;;2.60;72.10;;;;;;5035003;28;20040;-72
2022/01/20 04:29:17;;;;;;;14.85;2.38;;;2.60;72.30;;;;;;5031297;28;20159;-72
2022/01/20 04:31:45;;;;;;;15.07;1.67;;;2.60;71.30;;;;;;5053721;28;20060;-72
2022/01/20 04:34:11;;;;;;;12.45;1.90;;;2.50;72.70;;;;;;5037863;28;20097;-72
2022/01/20 04:36:40;;;;;;;20.85;2.17;;;2.60;71.70;;;;;;5029201;28;20048;-72
2022/01/20 04:39:10;;;;;;;18.58;2.53;;;2.60;72.30;;;;;;5035586;28;20048;-72
2022/01/20 04:41:36;;;;;;;21.67;2.65;;;2.70;73.70;;;;;;5062059;28;20102;-72
2022/01/20 04:44:06;;;;;;;16.42;2.45;;;2.70;74.50;;;;;;5043118;28;20041;-72
2022/01/20 04:57:31;;;;;;;14.90;2.10;;;2.00;76.80;;;;;;5060654;28;20394;-72
2022/01/20 04:59:57;;;;;;;17.20;1.90;;;1.90;76.90;;;;;;5025629;28;20040;-73
2022/01/20 05:02:26;;;;;;;19.00;2.95;;;1.90;76.30;;;;;;5045749;28;20036;-72
2022/01/20 05:04:52;;;;;;;14.02;1.92;;;1.80;76.40;;;;;;5041808;28;20097;-72
2022/01/20 05:07:22;;;;;;;12.25;1.40;;;1.70;75.60;;;;;;5048280;28;20515;-72
2022/01/20 05:09:48;;;;;;;12.52;2.00;;;1.70;75.90;;;;;;5038376;28;20095;-72
2022/01/20 05:12:19;;;;;;;14.57;1.85;;;1.70;76.10;;;;;;5012472;28;20076;-72
2022/01/20 05:14:45;;;;;;;12.38;2.03;;;1.80;76.00;;;;;;5053912;28;20032;-72
2022/01/20 05:17:11;;;;;;;14.67;1.70;;;1.90;76.40;;;;;;5039555;28;20117;-73
2022/01/20 05:19:37;;;;;;;15.40;1.70;;;2.00;76.30;;;;;;5036558;28;20075;-73
2022/01/20 05:22:03;;;;;;;13.23;1.77;;;2.10;77.00;;;;;;5034427;28;20078;-73
2022/01/20 05:24:34;;;;;;;15.18;1.92;;;1.90;77.20;;;;;;5052375;28;20058;-73
2022/01/20 05:27:00;;;;;;;12.67;2.13;;;1.90;76.80;;;;;;5050168;28;20055;-72
2022/01/20 05:29:26;;;;;;;18.63;2.07;;;1.80;76.90;;;;;;5039507;28;20051;-73
2022/01/20 05:31:52;;;;;;;11.27;2.00;;;1.80;77.40;;;;;;5055693;28;20448;-73
2022/01/20 05:34:19;;;;;;;15.15;2.85;;;1.90;77.50;;;;;;5063184;28;20036;-73
2022/01/20 05:36:47;;;;;;;16.25;2.50;;;1.80;77.90;;;;;;5067823;28;20059;-72
2022/01/20 05:39:12;;;;;;;15.00;1.85;;;1.70;77.60;;;;;;5056422;28;20052;-73
2022/01/20 05:41:38;;;;;;;17.67;1.73;;;1.70;77.70;;;;;;5031128;28;20062;-73
2022/01/20 05:44:04;;;;;;;10.03;1.33;;;1.60;77.80;;;;;;5067508;28;20047;-72
2022/01/20 05:46:37;;;;;;;11.63;1.67;;;1.60;77.30;;;;;;5092622;28;20067;-74
2022/01/20 05:49:10;;;;;;;10.55;1.48;;;1.50;77.00;;;;;;5034795;28;20044;-73
2022/01/20 05:51:37;;;;;;;10.35;1.83;;;1.50;77.20;;;;;;5061645;28;20033;-72
2022/01/20 05:54:09;;;;;;;14.98;2.28;;;1.40;77.30;;;;;;5056920;28;20345;-72
2022/01/20 05:56:35;;;;;;;17.47;1.90;;;1.50;77.60;;;;;;5057183;28;20036;-72
2022/01/20 05:59:01;;;;;;;15.75;2.15;;;1.60;77.70;;;;;;5043988;28;20040;-73
2022/01/20 06:01:27;;;;;;;13.03;1.80;;;1.70;78.10;;;;;;5045549;28;20043;-73
2022/01/20 06:03:54;;;;;;;13.23;1.60;;;1.70;78.00;;;;;;5066022;28;20044;-72
2022/01/20 06:06:24;;;;;;;11.48;1.60;;;1.60;77.90;;;;;;5045253;28;20047;-72
2022/01/20 06:08:52;;;;;;;11.27;2.17;;;1.50;78.40;;;;;;5059530;28;20129;-72
2022/01/20 06:11:18;;;;;;;13.68;1.77;;;1.40;78.50;;;;;;5057305;28;20036;-72
2022/01/20 06:13:45;;;;;;;7.03;1.03;;;1.40;78.60;;;;;;5046825;28;20089;-73
2022/01/20 06:16:10;;;;;;;7.70;1.10;;;1.30;78.40;;;;;;5061545;28;20527;-73
2022/01/20 06:18:36;;;;;;;9.43;1.23;;;1.30;77.80;;;;;;5045622;28;20037;-73
2022/01/20 06:21:02;;;;;;;15.48;1.17;;;1.30;77.70;;;;;;5065575;28;20043;-73
2022/01/20 06:23:28;;;;;;;14.50;1.48;;;1.40;77.20;;;;;;5060982;28;20106;-72
2022/01/20 06:25:54;;;;;;;12.27;1.80;;;1.50;77.90;;;;;;5056833;28;20104;-72
2022/01/20 06:28:20;;;;;;;14.97;1.73;;;1.50;78.00;;;;;;5049786;28;20159;-72
2022/01/20 06:30:46;;;;;;;18.60;1.83;;;1.60;77.20;;;;;;5072483;28;20350;-72
2022/01/20 06:33:12;;;;;;;11.25;1.80;;;1.70;76.20;;;;;;5027415;28;20133;-72
2022/01/20 06:35:38;;;;;;;13.93;2.13;;;1.70;76.80;;;;;;5041794;28;20129;-72
2022/01/20 06:38:05;;;;;;;12.33;2.20;;;1.70;76.80;;;;;;5049089;28;20040;-72
2022/01/20 06:40:31;;;;;;;18.13;2.20;;;1.70;76.70;;;;;;5060243;28;20040;-73
2022/01/20 06:42:57;;;;;;;11.95;2.17;;;1.80;75.50;;;;;;5067623;28;20039;-72
2022/01/20 06:45:23;;;;;;;16.45;2.40;;;1.80;74.80;;;;;;5061887;28;20047;-72
2022/01/20 06:47:50;;;;;;;16.33;1.80;;;1.90;74.30;;;;;;5061737;28;20511;-72
2022/01/20 06:50:16;;;;;;;14.30;2.08;;;2.00;74.10;;;;;;5046410;28;20040;-72
2022/01/20 06:52:43;;;;;;;20.35;2.50;;;2.10;74.00;;;;;;5034910;28;20068;-72
2022/01/20 06:55:11;;;;;;;12.95;1.98;;;2.10;75.50;;;;;;5057705;28;20126;-72
2022/01/20 06:57:38;;;;;;;17.83;2.90;;;2.10;76.00;;;;;;5042245;28;20040;-72
2022/01/20 07:00:16;;;;;;;16.88;2.17;;;2.20;76.20;;;;;;5056118;28;20048;-72
2022/01/20 07:02:44;;;;;;;18.27;2.80;;;2.10;76.00;;;;;;5076784;28;20064;-72
2022/01/20 07:05:12;;;;;;;24.75;2.40;;;2.00;76.60;;;;;;5073128;28;20052;-72
2022/01/20 07:07:38;;;;;;;16.15;3.15;;;1.90;76.50;;;;;;5042269;28;20067;-73
2022/01/20 07:10:12;;;;;;;22.37;2.47;;;1.80;76.90;;;;;;5069045;28;20044;-72
2022/01/20 07:12:38;;;;;;;16.60;2.40;;;1.70;77.40;;;;;;5034130;28;20123;-72
2022/01/20 07:15:05;;;;;;;15.45;2.33;;;1.60;77.70;;;;;;5041580;28;20036;-72
2022/01/20 07:17:31;;;;;;;21.70;3.13;;;1.50;77.70;;;;;;5033056;28;20048;-72
2022/01/20 07:19:56;;;;;;;17.98;2.45;;;1.40;78.10;;;;;;5053514;28;20032;-72
2022/01/20 07:22:22;;;;;;;19.13;2.77;;;1.30;78.40;;;;;;5058414;28;20408;-72
2022/01/20 07:24:48;;;;;;;11.53;2.10;;;1.30;78.20;;;;;;5047159;28;20063;-72
2022/01/20 07:27:14;;;;;;;16.97;2.43;;;1.30;78.20;;;;;;5061187;28;20070;-72
2022/01/20 07:29:40;;;;;;;18.27;2.35;;;1.40;78.40;;;;;;5077260;28;20047;-72
2022/01/20 07:32:07;;;;;;;14.73;2.77;;;1.40;78.30;;;;;;5069881;28;20095;-72
2022/01/20 07:34:33;;;;;;;16.25;2.83;;;1.50;77.60;;;;;;5048790;28;20052;-72
2022/01/20 07:37:01;;;;;;;17.25;1.67;;;1.50;77.10;;;;;;5060736;28;20040;-72
2022/01/20 07:39:27;;;;;;;12.30;2.10;;;1.60;77.00;;;;;;5053747;28;20045;-72
2022/01/20 07:41:52;;;;;;;15.97;2.90;;;1.70;76.50;;;;;;5024209;28;20044;-72
2022/01/20 07:44:19;;;;;;;19.37;3.00;;;1.90;75.80;;;;;;5041516;28;20393;-72
2022/01/20 07:46:46;;;;;;;18.83;2.15;;;2.00;75.70;;;;;;5046152;28;20040;-72
2022/01/20 07:49:12;;;;;;;14.43;2.90;;;2.00;74.70;;;;;;5048219;28;20496;-72
2022/01/20 07:51:37;;;;;;;18.33;2.88;;;2.10;74.50;;;;;;5040673;28;20051;-72
2022/01/20 07:54:03;;;;;;;15.73;2.40;;;2.20;74.60;;;;;;5064144;28;20504;-72
2022/01/20 07:56:29;;;;;;;16.38;2.47;;;2.20;74.70;;;;;;5064272;28;20037;-72
2022/01/20 07:58:55;;;;;;;16.70;2.63;;;2.20;73.30;;;;;;5046724;28;20036;-72
2022/01/20 08:01:22;;;;;;;24.83;2.70;;;2.20;74.10;;;;;;5029209;28;20044;-72
2022/01/20 08:03:48;;;;;;;17.77;2.42;;;2.30;73.90;;;;;;5046954;28;20064;-72
2022/01/20 08:06:14;;;;;;;10.47;1.53;;;2.40;73.80;;;;;;5031308;28;20040;-72
2022/01/20 08:08:40;;;;;;;8.90;1.50;;;2.50;73.10;;;;;;5052167;28;20047;-72
2022/01/20 08:11:06;;;;;;;12.43;1.50;;;2.40;72.60;;;;;;5064284;28;20309;-72
2022/01/20 08:13:31;;;;;;;9.17;1.17;;;2.30;71.70;;;;;;5046736;28;20048;-72
2022/01/20 08:15:57;;;;;;;7.50;1.03;;;2.30;72.50;;;;;;5032348;28;20424;-72
2022/01/20 08:18:23;;;;;;;9.27;1.17;;;2.20;72.90;;;;;;5046845;28;20053;-72
2022/01/20 08:20:48;;;;;;;8.60;1.50;;;2.10;72.70;;;;;;5041214;28;20044;-72
2022/01/20 08:23:14;;;;;;;9.03;1.33;;;2.10;72.10;;;;;;5043365;28;20537;-72
2022/01/20 08:25:40;;;;;;;14.33;2.13;;;2.00;72.40;;;;;;5046547;28;20618;-72
2022/01/20 08:28:06;;;;;;;11.80;1.63;;;2.00;72.60;;;;;;5040899;28;20040;-72
2022/01/20 08:30:32;;;;;;;13.52;1.95;;;2.10;72.70;;;;;;5052585;28;20039;-72
2022/01/20 08:32:59;;;;;;;14.97;2.03;;;2.10;72.60;;;;;;5031424;28;20473;-72
2022/01/20 08:35:31;;;;;;;11.18;1.92;;;2.10;72.80;;;;;;5034395;28;20040;-72
2022/01/20 08:37:59;;;;;;;17.83;3.30;;;2.20;72.20;;;;;;5042608;28;20507;-72
2022/01/20 08:40:26;;;;;;;16.80;1.70;;;2.20;72.30;;;;;;5064198;28;20036;-72
2022/01/20 08:42:53;;;;;;;13.38;1.80;;;2.20;72.00;;;;;;5063858;28;20088;-72
2022/01/20 08:45:22;;;;;;;17.13;2.70;;;2.30;71.80;;;;;;5038152;28;20557;-73
2022/01/20 08:47:54;;;;;;;14.63;2.30;;;2.30;71.80;;;;;;5053918;28;20184;-72
2022/01/20 08:50:25;;;;;;;14.27;1.52;;;2.40;71.50;;;;;;5068002;28;20056;-72
2022/01/20 08:52:52;;;;;;;17.17;2.42;;;2.50;71.70;;;;;;5039852;28;20059;-72
2022/01/20 08:55:18;;;;;;;15.77;2.70;;;2.60;72.30;;;;;;5046333;28;20063;-72
2022/01/20 08:57:45;;;;;;;15.57;2.35;;;2.60;72.50;;;;;;5022794;28;20497;-72
2022/01/20 09:00:12;;;;;;;18.85;2.20;;;2.70;72.00;;;;;;5041235;28;20043;-72
2022/01/20 09:02:38;;;;;;;16.13;2.63;;;2.70;72.30;;;;;;5050593;28;20043;-72
2022/01/20 09:05:04;;;;;;;16.80;2.47;;;2.70;72.80;;;;;;5063381;28;20067;-72
2022/01/20 09:07:30;;;;;;;14.35;2.05;;;2.80;73.70;;;;;;5060264;28;20430;-72
2022/01/20 09:09:59;;;;;;;10.43;1.77;;;2.80;74.00;;;;;;5044492;28;20052;-72
2022/01/20 09:17:52;;;;;;;14.85;1.92;;;2.90;74.20;;;;;;5056586;28;20106;-73
2022/01/20 09:20:22;;;;;;;13.90;1.77;;;2.90;73.50;;;;;;5072882;28;20066;-73
2022/01/20 09:22:48;;;;;;;14.45;2.50;;;2.90;74.10;;;;;;5035993;28;20048;-72
2022/01/20 09:25:16;;;;;;;12.48;1.88;;;2.80;73.30;;;;;;5055677;28;20562;-72
2022/01/20 09:27:42;;;;;;;6.93;1.02;;;2.80;72.70;;;;;;5033579;28;20045;-72
2022/01/20 09:30:09;;;;;;;10.10;1.20;;;2.70;72.80;;;;;;5078306;28;20050;-72
2022/01/20 09:32:39;;;;;;;10.40;1.15;;;2.70;72.90;;;;;;5035431;28;20036;-72
2022/01/20 09:35:06;;;;;;;9.25;1.75;;;2.80;72.90;;;;;;5069189;28;20036;-73
2022/01/20 09:37:34;;;;;;;8.65;1.38;;;2.80;72.60;;;;;;5061368;28;20039;-72
2022/01/20 09:39:59;;;;;;;14.07;1.58;;;2.90;72.20;;;;;;5040203;28;20036;-72
2022/01/20 09:42:25;;;;;;;13.60;1.67;;;3.00;72.20;;;;;;5037119;28;20040;-72
2022/01/20 09:44:53;;;;;;;12.70;2.03;;;3.10;71.40;;;;;;5057328;28;20479;-72
2022/01/20 09:47:20;;;;;;;13.30;2.13;;;3.20;70.10;;;;;;5056700;28;20471;-72
2022/01/20 09:49:46;;;;;;;17.15;2.33;;;3.20;70.40;;;;;;5033350;28;20040;-72
2022/01/20 09:52:12;;;;;;;14.68;2.20;;;3.30;70.00;;;;;;5087163;28;20116;-73
2022/01/20 09:54:38;;;;;;;18.57;2.20;;;3.40;69.90;;;;;;5045077;28;20040;-72
2022/01/20 09:57:05;;;;;;;9.57;1.70;;;3.50;70.30;;;;;;5041791;28;20377;-72
2022/01/20 09:59:31;;;;;;;13.77;1.88;;;3.40;70.80;;;;;;5014635;28;20036;-72
2022/01/20 10:01:58;;;;;;;17.95;3.03;;;3.40;71.30;;;;;;5036188;28;20480;-72
2022/01/20 10:04:33;;;;;;;12.77;2.30;;;3.30;71.40;;;;;;5062247;28;20078;-72
2022/01/20 10:07:12;;;;;;;21.02;3.70;;;3.30;71.90;;;;;;5051610;28;20364;-72
2022/01/20 10:09:41;;;;;;;15.13;2.15;;;3.30;72.30;;;;;;5040007;28;20489;-72
2022/01/20 10:12:09;;;;;;;13.40;2.08;;;3.30;72.40;;;;;;5058648;28;20047;-72
2022/01/20 10:14:43;;;;;;;23.50;2.67;;;3.30;72.70;;;;;;5081582;28;20040;-72
2022/01/20 10:17:28;;;;;;;14.73;2.25;;;3.30;73.50;;;;;;5045556;28;20429;-72
2022/01/20 10:20:06;;;;;;;15.02;2.28;;;3.20;73.70;;;;;;5049513;28;20082;-72
2022/01/20 10:22:36;;;;;;;13.98;2.20;;;3.30;73.80;;;;;;5040449;28;20037;-72
2022/01/20 10:25:05;;;;;;;12.75;1.90;;;3.30;73.70;;;;;;5039310;28;20040;-72
2022/01/20 10:27:33;;;;;;;18.30;2.38;;;3.30;73.90;;;;;;5051885;28;20055;-72
2022/01/20 10:30:04;;;;;;;12.63;2.15;;;3.40;74.20;;;;;;5043353;28;20048;-72
2022/01/20 10:32:47;;;;;;;22.48;2.78;;;3.50;74.70;;;;;;5045462;28;20400;-72
2022/01/20 10:35:16;;;;;;;18.38;2.65;;;3.80;73.20;;;;;;5050149;28;20166;-72
2022/01/20 10:38:11;;;;;;;17.42;2.13;;;4.00;72.60;;;;;;5061488;28;20048;-72
2022/01/20 10:40:56;;;;;;;16.33;2.85;;;4.00;72.90;;;;;;5054378;28;20048;-72
2022/01/20 10:43:26;;;;;;;24.45;4.05;;;3.90;73.30;;;;;;5057032;28;20041;-72
2022/01/20 10:46:11;;;;;;;20.73;4.20;;;3.80;72.80;;;;;;5049786;28;20100;-72
2022/01/20 10:48:38;;;;;;;19.27;2.55;;;3.90;73.10;;;;;;5050697;28;20119;-72
2022/01/20 10:51:16;;;;;;;21.40;2.20;;;4.00;73.00;;;;;;5044152;28;20047;-72
2022/01/20 10:53:41;;;;;;;21.70;2.70;;;4.30;72.90;;;;;;5047076;28;20040;-72
2022/01/20 10:56:07;;;;;;;18.07;3.03;;;4.40;72.30;;;;;;5050306;28;20562;-72
2022/01/20 10:58:33;;;;;;;17.33;2.10;;;4.50;71.10;;;;;;5041557;28;20135;-72
2022/01/20 11:01:00;;;;;;;16.33;2.10;;;4.40;70.00;;;;;;5060702;28;20061;-72
2022/01/20 11:03:27;;;;;;;14.98;2.03;;;4.20;69.70;;;;;;5058679;28;20117;-72
2022/01/20 11:05:56;;;;;;;12.07;1.75;;;4.00;70.70;;;;;;5068766;28;20055;-72
2022/01/20 11:08:22;;;;;;;14.73;2.53;;;3.60;71.60;;;;;;5066434;28;20051;-72
2022/01/20 11:10:50;;;;;;;18.00;2.30;;;3.50;72.70;;;;;;5033047;28;20153;-73
2022/01/20 11:13:17;;;;;;;13.40;2.17;;;3.30;73.60;;;;;;5055373;28;20044;-72
2022/01/20 11:15:44;;;;;;;15.82;3.17;;;3.30;74.20;;;;;;5030669;28;20079;-72
2022/01/20 11:18:10;;;;;;;14.50;2.20;;;3.40;73.50;;;;;;5059058;28;20119;-72
2022/01/20 11:20:40;;;;;;;16.17;2.55;;;3.60;71.80;;;;;;5044522;28;20032;-72
2022/01/20 11:23:09;;;;;;;17.35;2.85;;;3.80;73.30;;;;;;5057190;28;20036;-72
2022/01/20 11:25:39;;;;;;;14.98;2.25;;;3.90;74.10;;;;;;5060662;28;20116;-72
2022/01/20 11:28:17;;;;;;;13.63;1.75;;;3.80;74.60;;;;;;5052470;28;20500;-72
2022/01/20 11:31:06;;;;;;;6.55;1.10;;;3.70;73.80;;;;;;5075984;28;20087;-73
2022/01/20 11:33:42;;;;;;;9.75;1.85;;;3.60;73.50;;;;;;5046969;28;20332;-73
2022/01/20 11:36:24;;;;;;;7.88;0.95;;;3.50;73.70;;;;;;5078107;28;20043;-73
2022/01/20 11:38:50;;;;;;;9.50;1.92;;;3.40;73.50;;;;;;5043720;28;20044;-73
2022/01/20 11:41:17;;;;;;;13.45;1.67;;;3.30;73.30;;;;;;5035191;28;20044;-73
2022/01/20 11:43:53;;;;;;;10.23;1.73;;;3.20;73.80;;;;;;5053515;28;20044;-72
2022/01/20 11:46:21;;;;;;;12.23;1.63;;;3.20;73.40;;;;;;5039914;28;20036;-72
2022/01/20 11:49:06;;;;;;;8.60;2.05;;;3.30;73.40;;;;;;5049265;28;20085;-72
2022/01/20 11:51:47;;;;;;;9.57;1.90;;;3.40;73.30;;;;;;5053994;28;20046;-72
2022/01/20 11:54:35;;;;;;;13.23;1.60;;;3.50;73.20;;;;;;5069662;28;20059;-72
2022/01/20 11:57:10;;;;;;;16.73;2.28;;;3.80;73.30;;;;;;5070280;28;20058;-72
2022/01/20 11:59:42;;;;;;;17.00;2.28;;;4.20;72.50;;;;;;5052643;28;20360;-72
2022/01/20 12:02:08;;;;;;;13.85;2.00;;;4.40;71.90;;;;;;5069086;28;20067;-72
2022/01/20 12:04:37;;;;;;;10.02;1.55;;;4.50;70.90;;;;;;5049950;28;20576;-72
2022/01/20 12:07:04;;;;;;;11.82;1.70;;;4.50;70.70;;;;;;5054389;28;20040;-72
2022/01/20 12:09:34;;;;;;;15.05;1.55;;;4.40;71.70;;;;;;5062655;28;20163;-72
2022/01/20 12:12:01;;;;;;;16.00;1.73;;;4.20;72.10;;;;;;5057446;28;20458;-72
2022/01/20 12:14:37;;;;;;;15.73;1.60;;;4.10;72.10;;;;;;5058866;28;20411;-72
2022/01/20 12:17:11;;;;;;;11.95;1.52;;;4.10;72.60;;;;;;5046597;28;20040;-72
2022/01/20 12:19:38;;;;;;;19.67;2.40;;;4.20;72.20;;;;;;5044182;28;20079;-72
2022/01/20 12:22:05;;;;;;;14.60;1.80;;;4.30;71.30;;;;;;5054774;28;20217;-72
2022/01/20 12:24:34;;;;;;;11.13;2.67;;;4.20;71.30;;;;;;5043573;28;20036;-72
2022/01/20 12:27:00;;;;;;;16.00;2.22;;;4.20;72.10;;;;;;5054261;28;20043;-72
2022/01/20 12:29:37;;;;;;;9.73;2.15;;;4.30;71.80;;;;;;5048870;28;20480;-72
2022/01/20 12:32:19;;;;;;;13.43;1.90;;;4.20;72.70;;;;;;5050794;28;20051;-73
2022/01/20 12:34:55;;;;;;;12.35;1.75;;;3.80;74.00;;;;;;5056446;28;20074;-73
2022/01/20 12:37:30;;;;;;;15.63;1.75;;;3.20;75.80;;;;;;5064965;28;20477;-73
2022/01/20 12:39:56;;;;;;;10.80;1.65;;;2.70;76.40;;;;;;5063236;28;20045;-73
2022/01/20 12:42:22;;;;;;;14.70;1.50;;;2.50;77.90;;;;;;5044414;28;20032;-72
2022/01/20 12:44:50;;;;;;;10.17;1.30;;;2.40;79.00;;;;;;5034003;28;20032;-73
2022/01/20 12:47:26;;;;;;;11.10;1.00;;;2.40;79.90;;;;;;5053337;28;20052;-73
2022/01/20 12:49:57;;;;;;;10.23;1.30;;;2.40;79.90;;;;;;5059628;28;20043;-72
2022/01/20 12:52:22;;;;;;;8.60;1.05;;;2.30;79.70;;;;;;5051106;28;20100;-72
2022/01/20 12:54:50;;;;;;;11.13;1.67;;;2.40;79.80;;;;;;5032213;28;20044;-72
2022/01/20 12:57:17;;;;;;;17.48;1.58;;;2.40;79.60;;;;;;5054678;28;20444;-72
2022/01/20 12:59:45;;;;;;;15.13;1.90;;;2.50;80.10;;;;;;5049431;28;20123;-72
2022/01/20 13:02:23;;;;;;;16.05;1.73;;;2.80;79.80;;;;;;5039681;28;20504;-72
2022/01/20 13:04:55;;;;;;;16.08;2.03;;;3.10;79.90;;;;;;5046168;28;20401;-71
2022/01/20 13:07:21;;;;;;;13.27;1.88;;;3.40;79.60;;;;;;5044679;28;20113;-71
2022/01/20 13:09:52;;;;;;;17.10;2.42;;;3.70;79.00;;;;;;5049362;28;20048;-71
2022/01/20 13:12:30;;;;;;;12.63;2.30;;;3.90;78.40;;;;;;5057353;28;20104;-71
2022/01/20 13:14:56;;;;;;;12.82;2.60;;;4.00;77.10;;;;;;5039842;28;20048;-72
2022/01/20 13:17:23;;;;;;;18.33;2.27;;;4.10;76.00;;;;;;5029228;28;20055;-72
2022/01/20 13:19:50;;;;;;;13.02;2.33;;;4.00;75.00;;;;;;5041952;28;20044;-72
2022/01/20 13:22:31;;;;;;;12.73;1.75;;;3.90;75.40;;;;;;5041686;28;20098;-72
2022/01/20 13:25:15;;;;;;;14.85;3.15;;;3.80;75.00;;;;;;5054734;28;20093;-72
2022/01/20 13:27:52;;;;;;;10.68;1.45;;;3.70;74.40;;;;;;5045451;28;20075;-72
2022/01/20 13:30:36;;;;;;;11.68;1.70;;;3.60;75.00;;;;;;5073713;28;20051;-72
2022/01/20 13:33:04;;;;;;;9.45;1.45;;;3.70;74.20;;;;;;5056403;28;20500;-72
2022/01/20 13:36:01;;;;;;;8.75;1.40;;;3.80;73.60;;;;;;5050882;28;20036;-72
2022/01/20 13:38:41;;;;;;;9.13;1.35;;;3.90;73.90;;;;;;5049463;28;20061;-72
2022/01/20 13:41:13;;;;;;;11.88;1.85;;;3.90;73.20;;;;;;5029408;28;20047;-71
2022/01/20 13:46:40;;;;;;;5.28;1.15;;;3.70;73.60;;;;;;5055220;28;20151;-72
2022/01/20 13:49:23;;;;;;;9.07;1.00;;;3.50;73.00;;;;;;5031584;28;20063;-72
2022/01/20 13:52:00;;;;;;;8.95;0.90;;;3.40;72.80;;;;;;5045488;28;20090;-72
2022/01/20 13:54:36;;;;;;;11.50;1.45;;;3.40;73.60;;;;;;5040686;28;20040;-72
2022/01/20 13:57:02;;;;;;;9.90;1.05;;;3.40;73.40;;;;;;5045168;28;20037;-72
2022/01/20 13:59:28;;;;;;;10.63;2.08;;;3.40;73.80;;;;;;5048634;28;20053;-72
2022/01/20 14:01:54;;;;;;;12.73;1.33;;;3.40;73.30;;;;;;5045999;28;20040;-71
2022/01/20 14:04:20;;;;;;;16.03;1.80;;;3.40;73.70;;;;;;5035968;28;20763;-71
2022/01/20 14:06:45;;;;;;;13.40;1.90;;;3.50;74.10;;;;;;5074789;28;20404;-71
2022/01/20 14:09:11;;;;;;;13.03;2.30;;;3.60;74.10;;;;;;5041675;28;20040;-71
2022/01/20 14:11:39;;;;;;;13.20;2.10;;;3.70;73.70;;;;;;5035628;28;20469;-71